sensor_id;sensor_type;location;lat;lon;timestamp;temperature;humidity
38458;DHT22;24239;48.058;10.486;2022-10-31T00:02:21;8.60;99.90
38458;DHT22;24239;48.058;10.486;2022-10-31T00:04:47;8.40;99.90
38458;DHT22;24239;48.058;10.486;2022-10-31T00:07:13;8.60;99.90
38458;DHT22;24239;48.058;10.486;2022-10-31T00:09:39;8.50;99.90
38458;DHT22;24239;48.058;10.486;2022-10-31T00:12:05;8.60;99.90
38458;DHT22;24239;48.058;10.486;2022-10-31T00:14:30;8.60;99.90
38458;DHT22;24239;48.058;10.486;2022-10-31T00:16:56;8.50;99.90
38458;DHT22;24239;48.058;10.486;2022-10-31T00:19:22;8.50;99.90
38458;DHT22;24239;48.058;10.486;2022-10-31T00:21:47;8.50;99.90
38458;DHT22;24239;48.058;10.486;2022-10-31T00:24:13;8.40;99.90
38458;DHT22;24239;48.058;10.486;2022-10-31T00:26:39;8.40;99.90
38458;DHT22;24239;48.058;10.486;2022-10-31T00:29:05;8.40;99.90
38458;DHT22;24239;48.058;10.486;2022-10-31T00:31:31;8.40;99.90
38458;DHT22;24239;48.058;10.486;2022-10-31T00:33:57;8.50;99.90
38458;DHT22;24239;48.058;10.486;2022-10-31T00:36:23;8.40;99.90
38458;DHT22;24239;48.058;10.486;2022-10-31T00:38:48;8.40;99.90
38458;DHT22;24239;48.058;10.486;2022-10-31T00:41:15;8.40;99.90
38458;DHT22;24239;48.058;10.486;2022-10-31T00:43:41;8.30;99.90
38458;DHT22;24239;48.058;10.486;2022-10-31T00:46:07;8.30;99.90
38458;DHT22;24239;48.058;10.486;2022-10-31T00:48:33;8.30;99.90
38458;DHT22;24239;48.058;10.486;2022-10-31T00:50:58;8.30;99.90
38458;DHT22;24239;48.058;10.486;2022-10-31T00:53:24;8.30;99.90
38458;DHT22;24239;48.058;10.486;2022-10-31T00:55:50;8.40;99.90
38458;DHT22;24239;48.058;10.486;2022-10-31T00:58:16;8.20;99.90
38458;DHT22;24239;48.058;10.486;2022-10-31T01:00:42;8.40;99.90
38458;DHT22;24239;48.058;10.486;2022-10-31T01:03:10;8.30;99.90
38458;DHT22;24239;48.058;10.486;2022-10-31T01:05:36;8.30;99.90
38458;DHT22;24239;48.058;10.486;2022-10-31T01:08:01;8.30;99.90
38458;DHT22;24239;48.058;10.486;2022-10-31T01:10:27;8.20;99.90
38458;DHT22;24239;48.058;10.486;2022-10-31T01:12:53;8.20;99.90
38458;DHT22;24239;48.058;10.486;2022-10-31T01:15:20;8.20;99.90
38458;DHT22;24239;48.058;10.486;2022-10-31T01:17:47;8.20;99.90
38458;DHT22;24239;48.058;10.486;2022-10-31T01:20:13;8.10;99.90
38458;DHT22;24239;48.058;10.486;2022-10-31T01:22:39;8.10;99.90
38458;DHT22;24239;48.058;10.486;2022-10-31T01:25:05;8.10;99.90
38458;DHT22;24239;48.058;10.486;2022-10-31T01:27:31;8.10;99.90
38458;DHT22;24239;48.058;10.486;2022-10-31T01:29:57;8.10;99.90
38458;DHT22;24239;48.058;10.486;2022-10-31T01:32:22;8.00;99.90
38458;DHT22;24239;48.058;10.486;2022-10-31T01:34:48;8.00;99.90
38458;DHT22;24239;48.058;10.486;2022-10-31T01:37:14;8.00;99.90
38458;DHT22;24239;48.058;10.486;2022-10-31T01:39:40;8.00;99.90
38458;DHT22;24239;48.058;10.486;2022-10-31T01:42:05;8.00;99.90
38458;DHT22;24239;48.058;10.486;2022-10-31T01:54:23;7.90;99.90
38458;DHT22;24239;48.058;10.486;2022-10-31T01:56:52;7.90;99.90
38458;DHT22;24239;48.058;10.486;2022-10-31T01:59:19;7.90;99.90
38458;DHT22;24239;48.058;10.486;2022-10-31T02:01:46;7.80;99.90
38458;DHT22;24239;48.058;10.486;2022-10-31T02:04:13;8.00;99.90
38458;DHT22;24239;48.058;10.486;2022-10-31T02:06:44;7.80;99.90
38458;DHT22;24239;48.058;10.486;2022-10-31T02:09:11;7.80;99.90
38458;DHT22;24239;48.058;10.486;2022-10-31T02:11:37;7.80;99.90
38458;DHT22;24239;48.058;10.486;2022-10-31T02:14:04;7.70;99.90
38458;DHT22;24239;48.058;10.486;2022-10-31T02:16:29;7.70;99.90
38458;DHT22;24239;48.058;10.486;2022-10-31T02:18:55;7.80;99.90
38458;DHT22;24239;48.058;10.486;2022-10-31T02:24:18;7.70;99.90
38458;DHT22;24239;48.058;10.486;2022-10-31T02:26:49;7.70;99.90
38458;DHT22;24239;48.058;10.486;2022-10-31T02:32:04;7.70;99.90
38458;DHT22;24239;48.058;10.486;2022-10-31T02:37:20;7.70;99.90
38458;DHT22;24239;48.058;10.486;2022-10-31T02:40:05;7.60;99.90
38458;DHT22;24239;48.058;10.486;2022-10-31T02:45:11;7.60;99.90
38458;DHT22;24239;48.058;10.486;2022-10-31T02:47:39;7.60;99.90
38458;DHT22;24239;48.058;10.486;2022-10-31T02:50:17;7.60;99.90
38458;DHT22;24239;48.058;10.486;2022-10-31T02:52:49;7.60;99.90
38458;DHT22;24239;48.058;10.486;2022-10-31T02:57:50;7.50;99.90
38458;DHT22;24239;48.058;10.486;2022-10-31T03:00:18;7.50;99.90
38458;DHT22;24239;48.058;10.486;2022-10-31T03:02:47;7.50;99.90
38458;DHT22;24239;48.058;10.486;2022-10-31T03:15:27;7.40;99.90
38458;DHT22;24239;48.058;10.486;2022-10-31T03:17:59;7.40;99.90
38458;DHT22;24239;48.058;10.486;2022-10-31T03:20:29;7.40;99.90
38458;DHT22;24239;48.058;10.486;2022-10-31T03:22:55;7.40;99.90
38458;DHT22;24239;48.058;10.486;2022-10-31T03:25:22;7.40;99.90
38458;DHT22;24239;48.058;10.486;2022-10-31T03:27:48;7.30;99.90
38458;DHT22;24239;48.058;10.486;2022-10-31T03:30:14;7.30;99.90
38458;DHT22;24239;48.058;10.486;2022-10-31T03:32:45;7.30;99.90
38458;DHT22;24239;48.058;10.486;2022-10-31T03:35:14;7.30;99.90
38458;DHT22;24239;48.058;10.486;2022-10-31T03:37:40;7.30;99.90
38458;DHT22;24239;48.058;10.486;2022-10-31T03:40:06;7.20;99.90
38458;DHT22;24239;48.058;10.486;2022-10-31T03:42:33;7.20;99.90
38458;DHT22;24239;48.058;10.486;2022-10-31T03:45:08;7.20;99.90
38458;DHT22;24239;48.058;10.486;2022-10-31T03:47:36;7.20;99.90
38458;DHT22;24239;48.058;10.486;2022-10-31T03:50:02;7.20;99.90
38458;DHT22;24239;48.058;10.486;2022-10-31T03:52:32;7.10;99.90
38458;DHT22;24239;48.058;10.486;2022-10-31T03:54:59;7.00;99.90
38458;DHT22;24239;48.058;10.486;2022-10-31T03:57:30;7.00;99.90
38458;DHT22;24239;48.058;10.486;2022-10-31T04:00:00;7.00;99.90
38458;DHT22;24239;48.058;10.486;2022-10-31T04:06:10;7.00;99.90
38458;DHT22;24239;48.058;10.486;2022-10-31T04:08:48;7.00;99.90
38458;DHT22;24239;48.058;10.486;2022-10-31T04:11:14;7.00;99.90
38458;DHT22;24239;48.058;10.486;2022-10-31T04:13:41;6.90;99.90
38458;DHT22;24239;48.058;10.486;2022-10-31T04:16:09;6.90;99.90
38458;DHT22;24239;48.058;10.486;2022-10-31T04:18:35;6.90;99.90
38458;DHT22;24239;48.058;10.486;2022-10-31T04:21:02;6.90;99.90
38458;DHT22;24239;48.058;10.486;2022-10-31T04:23:28;6.90;99.90
38458;DHT22;24239;48.058;10.486;2022-10-31T04:25:54;6.80;99.90
38458;DHT22;24239;48.058;10.486;2022-10-31T04:28:19;6.80;99.90
38458;DHT22;24239;48.058;10.486;2022-10-31T04:30:45;6.90;99.90
38458;DHT22;24239;48.058;10.486;2022-10-31T04:33:11;6.80;99.90
38458;DHT22;24239;48.058;10.486;2022-10-31T04:35:37;6.90;99.90
38458;DHT22;24239;48.058;10.486;2022-10-31T04:38:02;6.90;99.90
38458;DHT22;24239;48.058;10.486;2022-10-31T04:40:28;6.90;99.90
38458;DHT22;24239;48.058;10.486;2022-10-31T04:42:54;6.90;99.90
38458;DHT22;24239;48.058;10.486;2022-10-31T04:45:19;7.00;99.90
38458;DHT22;24239;48.058;10.486;2022-10-31T04:47:45;6.80;99.90
38458;DHT22;24239;48.058;10.486;2022-10-31T04:50:11;6.80;99.90
38458;DHT22;24239;48.058;10.486;2022-10-31T04:52:40;6.90;99.90
38458;DHT22;24239;48.058;10.486;2022-10-31T04:55:06;6.80;99.90
38458;DHT22;24239;48.058;10.486;2022-10-31T04:57:32;6.80;99.90
38458;DHT22;24239;48.058;10.486;2022-10-31T04:59:58;6.90;99.90
38458;DHT22;24239;48.058;10.486;2022-10-31T05:02:23;6.80;99.90
38458;DHT22;24239;48.058;10.486;2022-10-31T05:04:49;6.90;99.90
38458;DHT22;24239;48.058;10.486;2022-10-31T05:07:14;6.80;99.90
38458;DHT22;24239;48.058;10.486;2022-10-31T05:09:40;6.70;99.90
38458;DHT22;24239;48.058;10.486;2022-10-31T05:12:06;6.70;99.90
38458;DHT22;24239;48.058;10.486;2022-10-31T05:14:32;6.80;99.90
38458;DHT22;24239;48.058;10.486;2022-10-31T05:16:57;6.70;99.90
38458;DHT22;24239;48.058;10.486;2022-10-31T05:19:23;6.70;99.90
38458;DHT22;24239;48.058;10.486;2022-10-31T05:21:49;6.70;99.90
38458;DHT22;24239;48.058;10.486;2022-10-31T05:24:14;6.60;99.90
38458;DHT22;24239;48.058;10.486;2022-10-31T05:26:40;6.70;99.90
38458;DHT22;24239;48.058;10.486;2022-10-31T05:29:06;6.60;99.90
38458;DHT22;24239;48.058;10.486;2022-10-31T05:31:31;6.60;99.90
38458;DHT22;24239;48.058;10.486;2022-10-31T05:33:57;6.50;99.90
38458;DHT22;24239;48.058;10.486;2022-10-31T05:36:23;6.50;99.90
38458;DHT22;24239;48.058;10.486;2022-10-31T05:38:48;6.50;99.90
38458;DHT22;24239;48.058;10.486;2022-10-31T05:41:18;6.60;99.90
38458;DHT22;24239;48.058;10.486;2022-10-31T05:43:44;6.60;99.90
38458;DHT22;24239;48.058;10.486;2022-10-31T05:46:10;6.50;99.90
38458;DHT22;24239;48.058;10.486;2022-10-31T05:48:35;6.60;99.90
38458;DHT22;24239;48.058;10.486;2022-10-31T05:51:01;6.60;99.90
38458;DHT22;24239;48.058;10.486;2022-10-31T05:53:27;6.50;99.90
38458;DHT22;24239;48.058;10.486;2022-10-31T05:55:53;6.50;99.90
38458;DHT22;24239;48.058;10.486;2022-10-31T05:58:18;6.50;99.90
38458;DHT22;24239;48.058;10.486;2022-10-31T06:00:44;6.50;99.90
38458;DHT22;24239;48.058;10.486;2022-10-31T06:03:10;6.50;99.90
38458;DHT22;24239;48.058;10.486;2022-10-31T06:05:35;6.50;99.90
38458;DHT22;24239;48.058;10.486;2022-10-31T06:08:01;6.50;99.90
38458;DHT22;24239;48.058;10.486;2022-10-31T06:10:27;6.50;99.90
38458;DHT22;24239;48.058;10.486;2022-10-31T06:12:52;6.50;99.90
38458;DHT22;24239;48.058;10.486;2022-10-31T06:15:18;6.70;99.90
38458;DHT22;24239;48.058;10.486;2022-10-31T06:17:44;6.50;99.90
38458;DHT22;24239;48.058;10.486;2022-10-31T06:20:10;6.50;99.90
38458;DHT22;24239;48.058;10.486;2022-10-31T06:22:36;6.60;99.90
38458;DHT22;24239;48.058;10.486;2022-10-31T06:25:01;6.60;99.90
38458;DHT22;24239;48.058;10.486;2022-10-31T06:27:27;6.60;99.90
38458;DHT22;24239;48.058;10.486;2022-10-31T06:29:53;6.60;99.90
38458;DHT22;24239;48.058;10.486;2022-10-31T06:32:19;6.60;99.90
38458;DHT22;24239;48.058;10.486;2022-10-31T06:34:45;6.80;99.90
38458;DHT22;24239;48.058;10.486;2022-10-31T06:37:13;6.70;99.90
38458;DHT22;24239;48.058;10.486;2022-10-31T06:39:39;6.80;99.90
38458;DHT22;24239;48.058;10.486;2022-10-31T06:42:05;6.80;99.90
38458;DHT22;24239;48.058;10.486;2022-10-31T06:44:31;6.80;99.90
38458;DHT22;24239;48.058;10.486;2022-10-31T06:46:57;6.90;99.90
38458;DHT22;24239;48.058;10.486;2022-10-31T06:49:22;6.90;99.90
38458;DHT22;24239;48.058;10.486;2022-10-31T06:51:48;7.00;99.90
38458;DHT22;24239;48.058;10.486;2022-10-31T06:54:14;7.10;99.90
38458;DHT22;24239;48.058;10.486;2022-10-31T06:56:40;7.10;99.90
38458;DHT22;24239;48.058;10.486;2022-10-31T06:59:06;7.30;99.90
38458;DHT22;24239;48.058;10.486;2022-10-31T07:01:31;7.30;99.90
38458;DHT22;24239;48.058;10.486;2022-10-31T07:03:57;7.40;99.90
38458;DHT22;24239;48.058;10.486;2022-10-31T07:06:23;7.60;99.90
38458;DHT22;24239;48.058;10.486;2022-10-31T07:08:48;7.60;99.90
38458;DHT22;24239;48.058;10.486;2022-10-31T07:11:14;7.40;99.90
38458;DHT22;24239;48.058;10.486;2022-10-31T07:13:40;7.60;99.90
38458;DHT22;24239;48.058;10.486;2022-10-31T07:16:06;7.80;99.90
38458;DHT22;24239;48.058;10.486;2022-10-31T07:18:37;7.80;99.90
38458;DHT22;24239;48.058;10.486;2022-10-31T07:21:03;7.90;99.90
38458;DHT22;24239;48.058;10.486;2022-10-31T07:23:29;8.00;99.90
38458;DHT22;24239;48.058;10.486;2022-10-31T07:25:55;8.10;99.90
38458;DHT22;24239;48.058;10.486;2022-10-31T07:28:21;8.30;99.90
38458;DHT22;24239;48.058;10.486;2022-10-31T07:30:54;8.40;99.90
38458;DHT22;24239;48.058;10.486;2022-10-31T07:33:20;8.50;99.90
38458;DHT22;24239;48.058;10.486;2022-10-31T07:35:46;8.60;99.90
38458;DHT22;24239;48.058;10.486;2022-10-31T07:38:12;8.80;99.90
38458;DHT22;24239;48.058;10.486;2022-10-31T07:40:39;8.90;99.90
38458;DHT22;24239;48.058;10.486;2022-10-31T07:43:05;9.00;99.90
38458;DHT22;24239;48.058;10.486;2022-10-31T07:45:30;9.30;99.90
38458;DHT22;24239;48.058;10.486;2022-10-31T07:47:56;9.40;99.90
38458;DHT22;24239;48.058;10.486;2022-10-31T07:50:23;9.50;99.90
38458;DHT22;24239;48.058;10.486;2022-10-31T07:53:11;9.50;99.90
38458;DHT22;24239;48.058;10.486;2022-10-31T07:55:37;9.60;99.90
38458;DHT22;24239;48.058;10.486;2022-10-31T07:58:04;9.70;99.90
38458;DHT22;24239;48.058;10.486;2022-10-31T08:00:31;9.80;99.90
38458;DHT22;24239;48.058;10.486;2022-10-31T08:03:04;9.90;99.90
38458;DHT22;24239;48.058;10.486;2022-10-31T08:05:30;9.90;99.90
38458;DHT22;24239;48.058;10.486;2022-10-31T08:07:56;10.00;99.90
38458;DHT22;24239;48.058;10.486;2022-10-31T08:10:23;10.10;99.90
38458;DHT22;24239;48.058;10.486;2022-10-31T08:12:56;10.20;99.90
38458;DHT22;24239;48.058;10.486;2022-10-31T08:15:22;10.30;99.90
38458;DHT22;24239;48.058;10.486;2022-10-31T08:17:47;10.40;99.90
38458;DHT22;24239;48.058;10.486;2022-10-31T08:20:13;10.60;99.90
38458;DHT22;24239;48.058;10.486;2022-10-31T08:22:39;10.60;99.90
38458;DHT22;24239;48.058;10.486;2022-10-31T08:25:04;10.90;99.90
38458;DHT22;24239;48.058;10.486;2022-10-31T08:27:30;11.20;99.90
38458;DHT22;24239;48.058;10.486;2022-10-31T08:29:56;11.20;99.90
38458;DHT22;24239;48.058;10.486;2022-10-31T08:32:22;11.50;99.90
38458;DHT22;24239;48.058;10.486;2022-10-31T08:34:47;11.60;99.90
38458;DHT22;24239;48.058;10.486;2022-10-31T08:37:13;11.70;99.90
38458;DHT22;24239;48.058;10.486;2022-10-31T08:39:44;11.90;99.90
38458;DHT22;24239;48.058;10.486;2022-10-31T08:42:09;12.00;99.90
38458;DHT22;24239;48.058;10.486;2022-10-31T08:44:35;12.10;99.90
38458;DHT22;24239;48.058;10.486;2022-10-31T08:47:01;12.20;99.90
38458;DHT22;24239;48.058;10.486;2022-10-31T08:49:26;12.30;99.90
38458;DHT22;24239;48.058;10.486;2022-10-31T08:51:52;12.50;99.90
38458;DHT22;24239;48.058;10.486;2022-10-31T08:54:18;12.60;99.90
38458;DHT22;24239;48.058;10.486;2022-10-31T08:56:43;12.70;99.90
38458;DHT22;24239;48.058;10.486;2022-10-31T08:59:09;12.80;99.90
38458;DHT22;24239;48.058;10.486;2022-10-31T09:01:35;13.00;99.90
38458;DHT22;24239;48.058;10.486;2022-10-31T09:04:03;13.10;99.90
38458;DHT22;24239;48.058;10.486;2022-10-31T09:06:29;13.30;99.90
38458;DHT22;24239;48.058;10.486;2022-10-31T09:08:54;13.40;99.90
38458;DHT22;24239;48.058;10.486;2022-10-31T09:11:20;13.50;99.90
38458;DHT22;24239;48.058;10.486;2022-10-31T09:13:46;13.70;99.90
38458;DHT22;24239;48.058;10.486;2022-10-31T09:16:11;13.90;99.90
38458;DHT22;24239;48.058;10.486;2022-10-31T09:18:37;14.00;99.90
38458;DHT22;24239;48.058;10.486;2022-10-31T09:21:03;14.20;99.90
38458;DHT22;24239;48.058;10.486;2022-10-31T09:23:28;14.30;99.90
38458;DHT22;24239;48.058;10.486;2022-10-31T09:25:54;14.40;99.90
38458;DHT22;24239;48.058;10.486;2022-10-31T09:28:22;14.60;99.90
38458;DHT22;24239;48.058;10.486;2022-10-31T09:30:49;14.70;99.90
38458;DHT22;24239;48.058;10.486;2022-10-31T09:33:15;14.90;99.90
38458;DHT22;24239;48.058;10.486;2022-10-31T09:35:40;15.10;99.90
38458;DHT22;24239;48.058;10.486;2022-10-31T09:38:13;15.30;99.90
38458;DHT22;24239;48.058;10.486;2022-10-31T09:40:50;15.60;99.90
38458;DHT22;24239;48.058;10.486;2022-10-31T09:54:16;16.40;99.90
38458;DHT22;24239;48.058;10.486;2022-10-31T09:56:46;16.60;99.90
38458;DHT22;24239;48.058;10.486;2022-10-31T09:59:45;16.70;99.90
38458;DHT22;24239;48.058;10.486;2022-10-31T10:37:46;17.40;99.90
38458;DHT22;24239;48.058;10.486;2022-10-31T10:40:23;17.30;99.90
38458;DHT22;24239;48.058;10.486;2022-10-31T10:42:55;17.40;99.90
38458;DHT22;24239;48.058;10.486;2022-10-31T10:45:40;17.30;99.90
38458;DHT22;24239;48.058;10.486;2022-10-31T10:48:42;17.40;99.90
38458;DHT22;24239;48.058;10.486;2022-10-31T10:51:10;17.40;99.90
38458;DHT22;24239;48.058;10.486;2022-10-31T10:59:13;17.50;99.90
38458;DHT22;24239;48.058;10.486;2022-10-31T11:01:40;17.60;99.90
38458;DHT22;24239;48.058;10.486;2022-10-31T11:07:01;17.70;99.90
38458;DHT22;24239;48.058;10.486;2022-10-31T11:09:27;17.80;99.90
38458;DHT22;24239;48.058;10.486;2022-10-31T11:11:53;17.90;99.90
38458;DHT22;24239;48.058;10.486;2022-10-31T11:14:20;18.00;99.90
38458;DHT22;24239;48.058;10.486;2022-10-31T11:16:48;18.10;99.90
38458;DHT22;24239;48.058;10.486;2022-10-31T11:19:19;18.10;99.90
38458;DHT22;24239;48.058;10.486;2022-10-31T11:21:46;18.10;99.90
38458;DHT22;24239;48.058;10.486;2022-10-31T11:24:19;18.20;99.90
38458;DHT22;24239;48.058;10.486;2022-10-31T11:26:45;18.20;99.90
38458;DHT22;24239;48.058;10.486;2022-10-31T11:31:43;18.30;99.90
38458;DHT22;24239;48.058;10.486;2022-10-31T11:34:14;18.30;99.90
38458;DHT22;24239;48.058;10.486;2022-10-31T11:36:42;18.30;99.90
38458;DHT22;24239;48.058;10.486;2022-10-31T11:39:22;18.30;99.90
38458;DHT22;24239;48.058;10.486;2022-10-31T11:41:48;18.30;99.90
38458;DHT22;24239;48.058;10.486;2022-10-31T11:44:22;18.40;99.90
38458;DHT22;24239;48.058;10.486;2022-10-31T11:46:54;18.30;99.90
38458;DHT22;24239;48.058;10.486;2022-10-31T11:51:49;18.30;99.90
38458;DHT22;24239;48.058;10.486;2022-10-31T11:54:25;18.20;99.90
38458;DHT22;24239;48.058;10.486;2022-10-31T11:56:51;18.20;99.90
38458;DHT22;24239;48.058;10.486;2022-10-31T11:59:18;18.30;99.90
38458;DHT22;24239;48.058;10.486;2022-10-31T12:01:48;18.30;99.90
38458;DHT22;24239;48.058;10.486;2022-10-31T12:04:14;18.20;99.90
38458;DHT22;24239;48.058;10.486;2022-10-31T12:06:45;18.20;99.90
38458;DHT22;24239;48.058;10.486;2022-10-31T12:45:59;17.80;99.90
38458;DHT22;24239;48.058;10.486;2022-10-31T12:59:11;18.20;99.90
38458;DHT22;24239;48.058;10.486;2022-10-31T13:01:37;18.40;99.90
38458;DHT22;24239;48.058;10.486;2022-10-31T13:06:57;18.50;99.90
38458;DHT22;24239;48.058;10.486;2022-10-31T13:09:38;18.50;99.90
38458;DHT22;24239;48.058;10.486;2022-10-31T13:12:13;18.50;99.90
38458;DHT22;24239;48.058;10.486;2022-10-31T13:14:41;18.50;99.90
38458;DHT22;24239;48.058;10.486;2022-10-31T13:17:12;18.40;99.90
38458;DHT22;24239;48.058;10.486;2022-10-31T13:19:41;18.30;99.90
38458;DHT22;24239;48.058;10.486;2022-10-31T13:22:09;18.20;99.90
38458;DHT22;24239;48.058;10.486;2022-10-31T13:24:54;18.00;99.90
38458;DHT22;24239;48.058;10.486;2022-10-31T13:27:26;17.90;99.90
38458;DHT22;24239;48.058;10.486;2022-10-31T13:32:17;17.70;99.90
38458;DHT22;24239;48.058;10.486;2022-10-31T13:34:47;17.60;99.90
38458;DHT22;24239;48.058;10.486;2022-10-31T13:40:31;17.50;99.90
38458;DHT22;24239;48.058;10.486;2022-10-31T13:45:16;17.50;99.90
38458;DHT22;24239;48.058;10.486;2022-10-31T13:47:42;17.50;99.90
38458;DHT22;24239;48.058;10.486;2022-10-31T13:50:19;17.50;99.90
38458;DHT22;24239;48.058;10.486;2022-10-31T13:52:45;17.60;99.90
38458;DHT22;24239;48.058;10.486;2022-10-31T13:57:55;17.80;99.90
38458;DHT22;24239;48.058;10.486;2022-10-31T14:02:47;17.90;99.90
38458;DHT22;24239;48.058;10.486;2022-10-31T14:08:16;18.00;99.90
38458;DHT22;24239;48.058;10.486;2022-10-31T14:10:46;18.00;99.90
38458;DHT22;24239;48.058;10.486;2022-10-31T14:13:18;18.00;99.90
38458;DHT22;24239;48.058;10.486;2022-10-31T14:18:38;18.00;99.90
38458;DHT22;24239;48.058;10.486;2022-10-31T14:23:50;18.00;99.90
38458;DHT22;24239;48.058;10.486;2022-10-31T14:28:55;18.10;99.90
38458;DHT22;24239;48.058;10.486;2022-10-31T14:33:53;18.10;99.90
38458;DHT22;24239;48.058;10.486;2022-10-31T14:36:22;18.10;99.90
38458;DHT22;24239;48.058;10.486;2022-10-31T14:42:03;18.20;99.90
38458;DHT22;24239;48.058;10.486;2022-10-31T14:47:04;18.20;99.90
38458;DHT22;24239;48.058;10.486;2022-10-31T14:52:19;18.30;99.90
38458;DHT22;24239;48.058;10.486;2022-10-31T14:55:04;18.20;99.90
38458;DHT22;24239;48.058;10.486;2022-10-31T14:57:32;18.10;99.90
38458;DHT22;24239;48.058;10.486;2022-10-31T15:00:06;18.00;99.90
38458;DHT22;24239;48.058;10.486;2022-10-31T15:05:16;17.80;99.90
38458;DHT22;24239;48.058;10.486;2022-10-31T15:07:50;17.70;99.90
38458;DHT22;24239;48.058;10.486;2022-10-31T15:10:21;17.60;99.90
38458;DHT22;24239;48.058;10.486;2022-10-31T15:12:47;17.40;99.90
38458;DHT22;24239;48.058;10.486;2022-10-31T15:15:23;17.30;99.90
38458;DHT22;24239;48.058;10.486;2022-10-31T15:17:58;17.20;99.90
38458;DHT22;24239;48.058;10.486;2022-10-31T15:20:25;17.10;99.90
38458;DHT22;24239;48.058;10.486;2022-10-31T15:22:51;17.00;99.90
38458;DHT22;24239;48.058;10.486;2022-10-31T15:25:21;16.80;99.90
38458;DHT22;24239;48.058;10.486;2022-10-31T15:27:47;16.70;99.90
38458;DHT22;24239;48.058;10.486;2022-10-31T15:30:21;16.60;99.90
38458;DHT22;24239;48.058;10.486;2022-10-31T15:32:47;16.40;99.90
38458;DHT22;24239;48.058;10.486;2022-10-31T15:35:24;16.30;99.90
38458;DHT22;24239;48.058;10.486;2022-10-31T15:37:51;16.10;99.90
38458;DHT22;24239;48.058;10.486;2022-10-31T15:40:17;16.00;99.90
38458;DHT22;24239;48.058;10.486;2022-10-31T15:42:48;15.80;99.90
38458;DHT22;24239;48.058;10.486;2022-10-31T15:45:19;15.70;99.90
38458;DHT22;24239;48.058;10.486;2022-10-31T15:48:32;15.50;99.90
38458;DHT22;24239;48.058;10.486;2022-10-31T15:50:36;15.40;99.90
38458;DHT22;24239;48.058;10.486;2022-10-31T15:53:05;15.20;99.90
38458;DHT22;24239;48.058;10.486;2022-10-31T15:55:33;15.10;99.90
38458;DHT22;24239;48.058;10.486;2022-10-31T15:58:01;14.90;99.90
38458;DHT22;24239;48.058;10.486;2022-10-31T16:00:36;14.70;99.90
38458;DHT22;24239;48.058;10.486;2022-10-31T16:05:36;14.30;99.90
38458;DHT22;24239;48.058;10.486;2022-10-31T16:08:02;14.20;99.90
38458;DHT22;24239;48.058;10.486;2022-10-31T16:10:28;14.10;99.90
38458;DHT22;24239;48.058;10.486;2022-10-31T16:12:57;14.00;99.90
38458;DHT22;24239;48.058;10.486;2022-10-31T16:15:26;13.80;99.90
38458;DHT22;24239;48.058;10.486;2022-10-31T16:17:52;13.60;99.90
38458;DHT22;24239;48.058;10.486;2022-10-31T16:20:19;13.50;99.90
38458;DHT22;24239;48.058;10.486;2022-10-31T16:22:48;13.40;99.90
38458;DHT22;24239;48.058;10.486;2022-10-31T16:25:25;13.30;99.90
38458;DHT22;24239;48.058;10.486;2022-10-31T16:27:52;13.10;99.90
38458;DHT22;24239;48.058;10.486;2022-10-31T16:35:32;12.80;99.90
38458;DHT22;24239;48.058;10.486;2022-10-31T16:37:58;12.80;99.90
38458;DHT22;24239;48.058;10.486;2022-10-31T16:40:24;12.60;99.90
38458;DHT22;24239;48.058;10.486;2022-10-31T16:42:50;12.60;99.90
38458;DHT22;24239;48.058;10.486;2022-10-31T16:45:17;12.50;99.90
38458;DHT22;24239;48.058;10.486;2022-10-31T16:47:43;12.40;99.90
38458;DHT22;24239;48.058;10.486;2022-10-31T16:50:14;12.20;99.90
38458;DHT22;24239;48.058;10.486;2022-10-31T16:52:40;12.20;99.90
38458;DHT22;24239;48.058;10.486;2022-10-31T16:55:10;12.10;99.90
38458;DHT22;24239;48.058;10.486;2022-10-31T16:57:35;12.00;99.90
38458;DHT22;24239;48.058;10.486;2022-10-31T17:00:01;12.00;99.90
38458;DHT22;24239;48.058;10.486;2022-10-31T17:02:27;12.00;99.90
38458;DHT22;24239;48.058;10.486;2022-10-31T17:04:54;11.90;99.90
38458;DHT22;24239;48.058;10.486;2022-10-31T17:07:21;11.80;99.90
38458;DHT22;24239;48.058;10.486;2022-10-31T17:09:47;11.80;99.90
38458;DHT22;24239;48.058;10.486;2022-10-31T17:12:16;11.70;99.90
38458;DHT22;24239;48.058;10.486;2022-10-31T17:14:43;11.70;99.90
38458;DHT22;24239;48.058;10.486;2022-10-31T17:17:11;11.60;99.90
38458;DHT22;24239;48.058;10.486;2022-10-31T17:19:36;11.60;99.90
38458;DHT22;24239;48.058;10.486;2022-10-31T17:22:05;11.60;99.90
38458;DHT22;24239;48.058;10.486;2022-10-31T17:24:31;11.50;99.90
38458;DHT22;24239;48.058;10.486;2022-10-31T17:26:57;11.50;99.90
38458;DHT22;24239;48.058;10.486;2022-10-31T17:29:22;11.40;99.90
38458;DHT22;24239;48.058;10.486;2022-10-31T17:31:48;11.30;99.90
38458;DHT22;24239;48.058;10.486;2022-10-31T17:34:14;11.30;99.90
38458;DHT22;24239;48.058;10.486;2022-10-31T17:36:40;11.30;99.90
38458;DHT22;24239;48.058;10.486;2022-10-31T17:39:05;11.30;99.90
38458;DHT22;24239;48.058;10.486;2022-10-31T17:41:34;11.20;99.90
38458;DHT22;24239;48.058;10.486;2022-10-31T17:44:01;11.20;99.90
38458;DHT22;24239;48.058;10.486;2022-10-31T17:46:28;11.20;99.90
38458;DHT22;24239;48.058;10.486;2022-10-31T17:48:54;11.00;99.90
38458;DHT22;24239;48.058;10.486;2022-10-31T17:51:19;11.10;99.90
38458;DHT22;24239;48.058;10.486;2022-10-31T17:53:45;11.10;99.90
38458;DHT22;24239;48.058;10.486;2022-10-31T17:56:11;11.00;99.90
38458;DHT22;24239;48.058;10.486;2022-10-31T17:58:37;11.00;99.90
38458;DHT22;24239;48.058;10.486;2022-10-31T18:01:07;10.90;99.90
38458;DHT22;24239;48.058;10.486;2022-10-31T18:03:33;10.90;99.90
38458;DHT22;24239;48.058;10.486;2022-10-31T18:05:59;10.70;99.90
38458;DHT22;24239;48.058;10.486;2022-10-31T18:08:29;10.80;99.90
38458;DHT22;24239;48.058;10.486;2022-10-31T18:10:55;10.70;99.90
38458;DHT22;24239;48.058;10.486;2022-10-31T18:13:24;10.60;99.90
38458;DHT22;24239;48.058;10.486;2022-10-31T18:15:50;10.50;99.90
38458;DHT22;24239;48.058;10.486;2022-10-31T18:18:15;10.50;99.90
38458;DHT22;24239;48.058;10.486;2022-10-31T18:20:41;10.50;99.90
38458;DHT22;24239;48.058;10.486;2022-10-31T18:23:08;10.40;99.90
38458;DHT22;24239;48.058;10.486;2022-10-31T18:25:33;10.40;99.90
38458;DHT22;24239;48.058;10.486;2022-10-31T18:27:59;10.40;99.90
38458;DHT22;24239;48.058;10.486;2022-10-31T18:30:25;10.40;99.90
38458;DHT22;24239;48.058;10.486;2022-10-31T18:32:50;10.40;99.90
38458;DHT22;24239;48.058;10.486;2022-10-31T18:35:16;10.30;99.90
38458;DHT22;24239;48.058;10.486;2022-10-31T18:37:42;10.30;99.90
38458;DHT22;24239;48.058;10.486;2022-10-31T18:40:08;10.30;99.90